sensor_id;sensor_type;location;lat;lon;timestamp;temperature;humidity
51557;DHT22;38766;53.194;5.532;2022-09-03T00:00:14;19.10;69.70
51557;DHT22;38766;53.194;5.532;2022-09-03T00:02:50;19.00;70.10
51557;DHT22;38766;53.194;5.532;2022-09-03T00:05:28;19.00;69.70
51557;DHT22;38766;53.194;5.532;2022-09-03T00:13:43;18.80;69.80
51557;DHT22;38766;53.194;5.532;2022-09-03T00:16:12;18.80;69.80
51557;DHT22;38766;53.194;5.532;2022-09-03T00:18:53;18.80;69.80
51557;DHT22;38766;53.194;5.532;2022-09-03T00:21:48;18.70;69.90
51557;DHT22;38766;53.194;5.532;2022-09-03T00:24:18;18.60;69.80
51557;DHT22;38766;53.194;5.532;2022-09-03T00:26:54;18.60;69.90
51557;DHT22;38766;53.194;5.532;2022-09-03T00:29:26;18.60;69.90
51557;DHT22;38766;53.194;5.532;2022-09-03T00:31:56;18.50;69.90
51557;DHT22;38766;53.194;5.532;2022-09-03T00:34:30;18.50;70.10
51557;DHT22;38766;53.194;5.532;2022-09-03T00:36:57;18.50;70.10
51557;DHT22;38766;53.194;5.532;2022-09-03T00:39:25;18.50;70.10
51557;DHT22;38766;53.194;5.532;2022-09-03T00:42:20;18.40;70.10
51557;DHT22;38766;53.194;5.532;2022-09-03T00:45:06;18.40;70.30
51557;DHT22;38766;53.194;5.532;2022-09-03T00:53:43;18.30;70.30
51557;DHT22;38766;53.194;5.532;2022-09-03T01:10:55;18.10;70.60
51557;DHT22;38766;53.194;5.532;2022-09-03T01:21:34;18.00;70.60
51557;DHT22;38766;53.194;5.532;2022-09-03T01:30:03;17.90;70.60
51557;DHT22;38766;53.194;5.532;2022-09-03T01:33:01;17.90;70.70
51557;DHT22;38766;53.194;5.532;2022-09-03T01:38:32;17.90;71.00
51557;DHT22;38766;53.194;5.532;2022-09-03T01:52:14;17.60;71.50
51557;DHT22;38766;53.194;5.532;2022-09-03T02:00:17;17.60;71.70
51557;DHT22;38766;53.194;5.532;2022-09-03T02:02:45;17.50;71.80
51557;DHT22;38766;53.194;5.532;2022-09-03T02:05:14;17.50;72.20
51557;DHT22;38766;53.194;5.532;2022-09-03T02:07:57;17.50;71.90
51557;DHT22;38766;53.194;5.532;2022-09-03T02:10:39;17.50;72.20
51557;DHT22;38766;53.194;5.532;2022-09-03T02:13:21;17.50;72.10
51557;DHT22;38766;53.194;5.532;2022-09-03T02:15:51;17.50;72.30
51557;DHT22;38766;53.194;5.532;2022-09-03T02:18:24;17.50;72.10
51557;DHT22;38766;53.194;5.532;2022-09-03T02:20:52;17.50;72.40
51557;DHT22;38766;53.194;5.532;2022-09-03T02:23:19;17.40;72.20
51557;DHT22;38766;53.194;5.532;2022-09-03T02:25:49;17.50;72.30
51557;DHT22;38766;53.194;5.532;2022-09-03T02:28:16;17.50;72.30
51557;DHT22;38766;53.194;5.532;2022-09-03T02:30:43;17.50;72.30
51557;DHT22;38766;53.194;5.532;2022-09-03T02:33:09;17.50;72.20
51557;DHT22;38766;53.194;5.532;2022-09-03T02:35:35;17.50;72.30
51557;DHT22;38766;53.194;5.532;2022-09-03T02:38:18;17.50;72.30
51557;DHT22;38766;53.194;5.532;2022-09-03T02:40:44;17.50;72.50
51557;DHT22;38766;53.194;5.532;2022-09-03T02:46:05;17.50;72.50
51557;DHT22;38766;53.194;5.532;2022-09-03T02:48:32;17.50;72.60
51557;DHT22;38766;53.194;5.532;2022-09-03T02:50:58;17.50;72.70
51557;DHT22;38766;53.194;5.532;2022-09-03T02:53:24;17.40;72.70
51557;DHT22;38766;53.194;5.532;2022-09-03T02:55:50;17.40;72.80
51557;DHT22;38766;53.194;5.532;2022-09-03T02:58:15;17.40;72.80
51557;DHT22;38766;53.194;5.532;2022-09-03T03:00:41;17.40;72.80
51557;DHT22;38766;53.194;5.532;2022-09-03T03:03:07;17.50;73.40
51557;DHT22;38766;53.194;5.532;2022-09-03T03:05:50;17.40;72.90
51557;DHT22;38766;53.194;5.532;2022-09-03T03:08:18;17.40;73.10
51557;DHT22;38766;53.194;5.532;2022-09-03T03:10:46;17.40;73.00
51557;DHT22;38766;53.194;5.532;2022-09-03T03:13:12;17.40;73.00
51557;DHT22;38766;53.194;5.532;2022-09-03T03:15:38;17.40;73.10
51557;DHT22;38766;53.194;5.532;2022-09-03T03:18:04;17.40;73.10
51557;DHT22;38766;53.194;5.532;2022-09-03T03:20:32;17.40;73.20
51557;DHT22;38766;53.194;5.532;2022-09-03T03:23:00;17.40;73.30
51557;DHT22;38766;53.194;5.532;2022-09-03T03:25:26;17.40;73.40
51557;DHT22;38766;53.194;5.532;2022-09-03T03:27:54;17.30;73.40
51557;DHT22;38766;53.194;5.532;2022-09-03T03:30:21;17.30;73.40
51557;DHT22;38766;53.194;5.532;2022-09-03T03:32:47;17.30;73.50
51557;DHT22;38766;53.194;5.532;2022-09-03T03:35:13;17.30;73.40
51557;DHT22;38766;53.194;5.532;2022-09-03T03:37:39;17.20;73.40
51557;DHT22;38766;53.194;5.532;2022-09-03T03:40:05;17.30;73.60
51557;DHT22;38766;53.194;5.532;2022-09-03T03:42:34;17.20;73.50
51557;DHT22;38766;53.194;5.532;2022-09-03T03:45:00;17.20;73.50
51557;DHT22;38766;53.194;5.532;2022-09-03T03:47:28;17.20;73.60
51557;DHT22;38766;53.194;5.532;2022-09-03T03:49:58;17.10;73.60
51557;DHT22;38766;53.194;5.532;2022-09-03T03:52:25;17.10;73.70
51557;DHT22;38766;53.194;5.532;2022-09-03T03:54:51;17.10;73.90
51557;DHT22;38766;53.194;5.532;2022-09-03T03:57:18;17.10;73.90
51557;DHT22;38766;53.194;5.532;2022-09-03T03:59:44;17.00;74.00
51557;DHT22;38766;53.194;5.532;2022-09-03T04:02:10;17.00;74.00
51557;DHT22;38766;53.194;5.532;2022-09-03T04:04:36;17.00;74.60
51557;DHT22;38766;53.194;5.532;2022-09-03T04:07:02;17.00;74.10
51557;DHT22;38766;53.194;5.532;2022-09-03T04:09:27;16.90;74.10
51557;DHT22;38766;53.194;5.532;2022-09-03T04:11:53;16.90;74.20
51557;DHT22;38766;53.194;5.532;2022-09-03T04:14:22;16.90;74.30
51557;DHT22;38766;53.194;5.532;2022-09-03T04:16:48;16.80;74.40
51557;DHT22;38766;53.194;5.532;2022-09-03T04:19:15;16.80;74.50
51557;DHT22;38766;53.194;5.532;2022-09-03T04:21:41;16.70;74.50
51557;DHT22;38766;53.194;5.532;2022-09-03T04:24:07;16.70;74.50
51557;DHT22;38766;53.194;5.532;2022-09-03T04:26:33;16.70;74.60
51557;DHT22;38766;53.194;5.532;2022-09-03T04:28:59;16.70;74.70
51557;DHT22;38766;53.194;5.532;2022-09-03T04:31:26;16.70;74.70
51557;DHT22;38766;53.194;5.532;2022-09-03T04:33:52;16.70;74.80
51557;DHT22;38766;53.194;5.532;2022-09-03T04:36:20;16.70;74.90
51557;DHT22;38766;53.194;5.532;2022-09-03T04:38:48;16.70;74.90
51557;DHT22;38766;53.194;5.532;2022-09-03T04:41:17;16.70;75.00
51557;DHT22;38766;53.194;5.532;2022-09-03T04:43:43;16.60;75.00
51557;DHT22;38766;53.194;5.532;2022-09-03T04:46:11;16.60;75.10
51557;DHT22;38766;53.194;5.532;2022-09-03T04:48:37;16.60;75.20
51557;DHT22;38766;53.194;5.532;2022-09-03T04:51:04;16.60;75.30
51557;DHT22;38766;53.194;5.532;2022-09-03T04:53:34;16.60;75.40
51557;DHT22;38766;53.194;5.532;2022-09-03T04:56:00;16.50;75.30
51557;DHT22;38766;53.194;5.532;2022-09-03T04:58:26;16.50;75.40
51557;DHT22;38766;53.194;5.532;2022-09-03T05:00:52;16.50;75.50
51557;DHT22;38766;53.194;5.532;2022-09-03T05:03:17;16.50;75.60
51557;DHT22;38766;53.194;5.532;2022-09-03T05:05:54;16.50;75.70
51557;DHT22;38766;53.194;5.532;2022-09-03T05:08:21;16.50;76.00
51557;DHT22;38766;53.194;5.532;2022-09-03T05:10:47;16.50;75.90
51557;DHT22;38766;53.194;5.532;2022-09-03T05:13:13;16.40;75.80
51557;DHT22;38766;53.194;5.532;2022-09-03T05:15:41;16.40;75.80
51557;DHT22;38766;53.194;5.532;2022-09-03T05:18:08;16.40;76.00
51557;DHT22;38766;53.194;5.532;2022-09-03T05:20:33;16.40;76.10
51557;DHT22;38766;53.194;5.532;2022-09-03T05:23:03;16.30;76.10
51557;DHT22;38766;53.194;5.532;2022-09-03T05:25:29;16.30;76.20
51557;DHT22;38766;53.194;5.532;2022-09-03T05:27:58;16.30;76.30
51557;DHT22;38766;53.194;5.532;2022-09-03T05:30:23;16.30;76.40
51557;DHT22;38766;53.194;5.532;2022-09-03T05:32:50;16.30;76.50
51557;DHT22;38766;53.194;5.532;2022-09-03T05:35:16;16.30;76.60
51557;DHT22;38766;53.194;5.532;2022-09-03T05:37:43;16.30;76.60
51557;DHT22;38766;53.194;5.532;2022-09-03T05:40:08;16.30;76.70
51557;DHT22;38766;53.194;5.532;2022-09-03T05:42:37;16.30;76.70
51557;DHT22;38766;53.194;5.532;2022-09-03T05:45:08;16.30;76.70
51557;DHT22;38766;53.194;5.532;2022-09-03T05:47:37;16.30;76.90
51557;DHT22;38766;53.194;5.532;2022-09-03T05:50:07;16.20;76.80
51557;DHT22;38766;53.194;5.532;2022-09-03T05:52:35;16.20;76.90
51557;DHT22;38766;53.194;5.532;2022-09-03T05:55:02;16.30;77.00
51557;DHT22;38766;53.194;5.532;2022-09-03T05:57:27;16.20;77.00
51557;DHT22;38766;53.194;5.532;2022-09-03T05:59:55;16.20;77.10
51557;DHT22;38766;53.194;5.532;2022-09-03T06:02:20;16.20;77.30
51557;DHT22;38766;53.194;5.532;2022-09-03T06:04:46;16.20;77.30
51557;DHT22;38766;53.194;5.532;2022-09-03T06:07:14;16.20;77.30
51557;DHT22;38766;53.194;5.532;2022-09-03T06:09:40;16.20;77.50
51557;DHT22;38766;53.194;5.532;2022-09-03T06:12:06;16.20;77.70
51557;DHT22;38766;53.194;5.532;2022-09-03T06:14:31;16.20;77.70
51557;DHT22;38766;53.194;5.532;2022-09-03T06:16:57;16.20;77.90
51557;DHT22;38766;53.194;5.532;2022-09-03T06:19:23;16.20;77.90
51557;DHT22;38766;53.194;5.532;2022-09-03T06:21:48;16.20;78.10
51557;DHT22;38766;53.194;5.532;2022-09-03T06:24:18;16.30;78.20
51557;DHT22;38766;53.194;5.532;2022-09-03T06:26:45;16.30;78.30
51557;DHT22;38766;53.194;5.532;2022-09-03T06:29:11;16.40;78.30
51557;DHT22;38766;53.194;5.532;2022-09-03T06:31:38;16.40;78.40
51557;DHT22;38766;53.194;5.532;2022-09-03T06:34:04;16.50;78.30
51557;DHT22;38766;53.194;5.532;2022-09-03T06:36:30;16.50;78.20
51557;DHT22;38766;53.194;5.532;2022-09-03T06:38:56;16.60;78.10
51557;DHT22;38766;53.194;5.532;2022-09-03T06:41:28;16.70;78.00
51557;DHT22;38766;53.194;5.532;2022-09-03T06:44:01;16.80;77.90
51557;DHT22;38766;53.194;5.532;2022-09-03T06:46:29;17.10;77.50
51557;DHT22;38766;53.194;5.532;2022-09-03T06:48:55;17.30;77.10
51557;DHT22;38766;53.194;5.532;2022-09-03T06:51:25;17.60;76.50
51557;DHT22;38766;53.194;5.532;2022-09-03T06:53:54;17.90;76.20
51557;DHT22;38766;53.194;5.532;2022-09-03T06:56:24;18.10;75.40
51557;DHT22;38766;53.194;5.532;2022-09-03T06:58:54;18.30;75.10
51557;DHT22;38766;53.194;5.532;2022-09-03T07:01:22;18.60;74.80
51557;DHT22;38766;53.194;5.532;2022-09-03T07:03:52;18.70;74.40
51557;DHT22;38766;53.194;5.532;2022-09-03T07:06:20;18.80;74.00
51557;DHT22;38766;53.194;5.532;2022-09-03T07:08:46;19.00;74.00
51557;DHT22;38766;53.194;5.532;2022-09-03T07:11:14;19.20;73.60
51557;DHT22;38766;53.194;5.532;2022-09-03T07:13:42;19.30;73.30
51557;DHT22;38766;53.194;5.532;2022-09-03T07:16:17;19.40;73.10
51557;DHT22;38766;53.194;5.532;2022-09-03T07:18:43;19.50;72.70
51557;DHT22;38766;53.194;5.532;2022-09-03T07:21:20;19.60;72.60
51557;DHT22;38766;53.194;5.532;2022-09-03T07:23:47;19.60;72.30
51557;DHT22;38766;53.194;5.532;2022-09-03T07:26:16;19.70;72.20
51557;DHT22;38766;53.194;5.532;2022-09-03T07:28:45;19.80;72.30
51557;DHT22;38766;53.194;5.532;2022-09-03T07:31:14;19.90;72.20
51557;DHT22;38766;53.194;5.532;2022-09-03T07:33:40;20.00;71.90
51557;DHT22;38766;53.194;5.532;2022-09-03T07:36:12;20.00;71.70
51557;DHT22;38766;53.194;5.532;2022-09-03T07:38:39;20.10;71.70
51557;DHT22;38766;53.194;5.532;2022-09-03T07:41:07;20.20;71.40
51557;DHT22;38766;53.194;5.532;2022-09-03T07:43:35;20.40;71.50
51557;DHT22;38766;53.194;5.532;2022-09-03T07:46:01;20.50;71.10
51557;DHT22;38766;53.194;5.532;2022-09-03T07:48:27;20.60;71.20
51557;DHT22;38766;53.194;5.532;2022-09-03T07:50:57;20.60;70.70
51557;DHT22;38766;53.194;5.532;2022-09-03T07:53:25;20.70;70.10
51557;DHT22;38766;53.194;5.532;2022-09-03T07:55:51;20.80;70.00
51557;DHT22;38766;53.194;5.532;2022-09-03T07:58:16;20.90;69.60
51557;DHT22;38766;53.194;5.532;2022-09-03T08:00:42;21.00;69.90
51557;DHT22;38766;53.194;5.532;2022-09-03T08:03:08;21.10;69.90
51557;DHT22;38766;53.194;5.532;2022-09-03T08:05:36;21.30;69.40
51557;DHT22;38766;53.194;5.532;2022-09-03T08:08:03;21.40;68.70
51557;DHT22;38766;53.194;5.532;2022-09-03T08:10:33;21.50;68.70
51557;DHT22;38766;53.194;5.532;2022-09-03T08:12:58;21.70;68.80
51557;DHT22;38766;53.194;5.532;2022-09-03T08:15:25;21.90;68.40
51557;DHT22;38766;53.194;5.532;2022-09-03T08:17:51;22.00;68.20
51557;DHT22;38766;53.194;5.532;2022-09-03T08:20:18;22.10;67.60
51557;DHT22;38766;53.194;5.532;2022-09-03T08:22:44;22.10;67.60
51557;DHT22;38766;53.194;5.532;2022-09-03T08:25:10;22.30;67.50
51557;DHT22;38766;53.194;5.532;2022-09-03T08:27:36;22.30;67.10
51557;DHT22;38766;53.194;5.532;2022-09-03T08:30:01;22.40;67.20
51557;DHT22;38766;53.194;5.532;2022-09-03T08:32:28;22.50;66.70
51557;DHT22;38766;53.194;5.532;2022-09-03T08:34:54;22.50;66.30
51557;DHT22;38766;53.194;5.532;2022-09-03T08:37:20;22.60;66.20
51557;DHT22;38766;53.194;5.532;2022-09-03T08:39:53;22.60;66.80
51557;DHT22;38766;53.194;5.532;2022-09-03T08:42:57;22.70;66.50
51557;DHT22;38766;53.194;5.532;2022-09-03T08:45:22;22.90;66.20
51557;DHT22;38766;53.194;5.532;2022-09-03T08:47:53;22.90;66.20
51557;DHT22;38766;53.194;5.532;2022-09-03T08:50:50;23.00;65.70
51557;DHT22;38766;53.194;5.532;2022-09-03T08:56:08;23.00;65.20
51557;DHT22;38766;53.194;5.532;2022-09-03T08:58:35;23.10;64.70
51557;DHT22;38766;53.194;5.532;2022-09-03T09:14:19;23.60;63.30
51557;DHT22;38766;53.194;5.532;2022-09-03T09:17:07;23.60;64.20
51557;DHT22;38766;53.194;5.532;2022-09-03T09:20:05;23.60;63.70
51557;DHT22;38766;53.194;5.532;2022-09-03T09:23:39;23.70;63.50
51557;DHT22;38766;53.194;5.532;2022-09-03T09:25:44;23.80;64.00
51557;DHT22;38766;53.194;5.532;2022-09-03T09:28:22;23.90;64.30
51557;DHT22;38766;53.194;5.532;2022-09-03T09:30:49;24.00;64.10
51557;DHT22;38766;53.194;5.532;2022-09-03T09:33:17;24.10;63.80
51557;DHT22;38766;53.194;5.532;2022-09-03T09:35:43;24.10;63.60
51557;DHT22;38766;53.194;5.532;2022-09-03T09:38:10;24.10;63.50
51557;DHT22;38766;53.194;5.532;2022-09-03T09:40:41;24.20;63.20
51557;DHT22;38766;53.194;5.532;2022-09-03T09:43:17;24.20;62.60
51557;DHT22;38766;53.194;5.532;2022-09-03T09:45:50;24.20;62.80
51557;DHT22;38766;53.194;5.532;2022-09-03T09:48:27;24.30;63.20
51557;DHT22;38766;53.194;5.532;2022-09-03T09:51:11;24.30;63.40
51557;DHT22;38766;53.194;5.532;2022-09-03T09:53:38;24.40;63.00
51557;DHT22;38766;53.194;5.532;2022-09-03T09:56:04;24.50;63.20
51557;DHT22;38766;53.194;5.532;2022-09-03T09:58:32;24.60;63.10
51557;DHT22;38766;53.194;5.532;2022-09-03T10:01:03;24.60;62.80
51557;DHT22;38766;53.194;5.532;2022-09-03T10:04:07;24.70;62.10
51557;DHT22;38766;53.194;5.532;2022-09-03T10:06:31;24.70;62.40
51557;DHT22;38766;53.194;5.532;2022-09-03T10:09:20;24.80;62.30
51557;DHT22;38766;53.194;5.532;2022-09-03T10:15:10;25.10;62.40
51557;DHT22;38766;53.194;5.532;2022-09-03T10:18:23;25.20;62.00
51557;DHT22;38766;53.194;5.532;2022-09-03T10:21:19;25.30;61.30
51557;DHT22;38766;53.194;5.532;2022-09-03T10:23:55;25.30;61.70
51557;DHT22;38766;53.194;5.532;2022-09-03T10:26:22;25.40;61.70
51557;DHT22;38766;53.194;5.532;2022-09-03T10:28:57;25.50;61.40
51557;DHT22;38766;53.194;5.532;2022-09-03T10:37:37;25.50;60.60
51557;DHT22;38766;53.194;5.532;2022-09-03T10:45:37;25.50;60.70
51557;DHT22;38766;53.194;5.532;2022-09-03T10:48:15;25.50;60.90
51557;DHT22;38766;53.194;5.532;2022-09-03T10:50:51;25.60;60.40
51557;DHT22;38766;53.194;5.532;2022-09-03T10:55:47;25.80;60.60
51557;DHT22;38766;53.194;5.532;2022-09-03T10:58:31;25.80;60.00
51557;DHT22;38766;53.194;5.532;2022-09-03T11:01:27;25.90;59.70
51557;DHT22;38766;53.194;5.532;2022-09-03T11:06:39;26.10;59.60
51557;DHT22;38766;53.194;5.532;2022-09-03T11:11:54;26.30;58.50
51557;DHT22;38766;53.194;5.532;2022-09-03T11:14:35;26.30;58.20
51557;DHT22;38766;53.194;5.532;2022-09-03T11:17:10;26.30;58.20
51557;DHT22;38766;53.194;5.532;2022-09-03T11:19:57;26.40;57.90
51557;DHT22;38766;53.194;5.532;2022-09-03T11:22:28;26.50;57.80
51557;DHT22;38766;53.194;5.532;2022-09-03T11:24:58;26.50;58.20
51557;DHT22;38766;53.194;5.532;2022-09-03T11:32:43;26.50;57.00
51557;DHT22;38766;53.194;5.532;2022-09-03T11:38:07;26.60;56.80
51557;DHT22;38766;53.194;5.532;2022-09-03T11:43:31;26.70;56.40
51557;DHT22;38766;53.194;5.532;2022-09-03T11:46:13;26.80;57.20
51557;DHT22;38766;53.194;5.532;2022-09-03T11:49:10;26.90;55.90
51557;DHT22;38766;53.194;5.532;2022-09-03T11:51:37;26.90;55.60
51557;DHT22;38766;53.194;5.532;2022-09-03T11:56:38;26.90;55.50
51557;DHT22;38766;53.194;5.532;2022-09-03T11:59:16;26.90;55.30
51557;DHT22;38766;53.194;5.532;2022-09-03T12:01:50;26.90;54.20
51557;DHT22;38766;53.194;5.532;2022-09-03T12:04:24;26.90;53.80
51557;DHT22;38766;53.194;5.532;2022-09-03T12:18:01;26.70;51.20
51557;DHT22;38766;53.194;5.532;2022-09-03T12:25:54;26.70;51.80
51557;DHT22;38766;53.194;5.532;2022-09-03T12:28:22;26.80;52.00
51557;DHT22;38766;53.194;5.532;2022-09-03T12:30:50;26.80;52.20
51557;DHT22;38766;53.194;5.532;2022-09-03T12:33:19;26.80;51.50
51557;DHT22;38766;53.194;5.532;2022-09-03T12:35:57;26.90;51.40
51557;DHT22;38766;53.194;5.532;2022-09-03T12:38:31;26.90;50.70
51557;DHT22;38766;53.194;5.532;2022-09-03T12:40:58;26.90;50.60
51557;DHT22;38766;53.194;5.532;2022-09-03T12:43:28;26.90;51.20
51557;DHT22;38766;53.194;5.532;2022-09-03T12:45:54;26.90;50.90
51557;DHT22;38766;53.194;5.532;2022-09-03T12:48:20;26.90;50.90
51557;DHT22;38766;53.194;5.532;2022-09-03T12:50:47;27.00;50.70
51557;DHT22;38766;53.194;5.532;2022-09-03T12:53:24;27.00;50.60
51557;DHT22;38766;53.194;5.532;2022-09-03T12:55:51;27.10;49.60
51557;DHT22;38766;53.194;5.532;2022-09-03T12:58:22;27.10;50.40
51557;DHT22;38766;53.194;5.532;2022-09-03T13:01:08;27.10;50.00
51557;DHT22;38766;53.194;5.532;2022-09-03T13:03:58;27.10;49.40
51557;DHT22;38766;53.194;5.532;2022-09-03T13:06:52;27.10;48.30
51557;DHT22;38766;53.194;5.532;2022-09-03T13:09:19;27.00;49.40
51557;DHT22;38766;53.194;5.532;2022-09-03T13:11:46;27.10;49.70
51557;DHT22;38766;53.194;5.532;2022-09-03T13:14:13;27.10;49.60
51557;DHT22;38766;53.194;5.532;2022-09-03T13:28:29;27.20;49.60
51557;DHT22;38766;53.194;5.532;2022-09-03T13:33:44;27.30;48.80
51557;DHT22;38766;53.194;5.532;2022-09-03T13:36:25;27.30;48.50
51557;DHT22;38766;53.194;5.532;2022-09-03T13:38:55;27.30;48.90
51557;DHT22;38766;53.194;5.532;2022-09-03T13:41:54;27.30;48.70
51557;DHT22;38766;53.194;5.532;2022-09-03T13:44:41;27.30;49.00
51557;DHT22;38766;53.194;5.532;2022-09-03T13:49:53;27.40;48.60
51557;DHT22;38766;53.194;5.532;2022-09-03T13:53:03;27.30;48.90
51557;DHT22;38766;53.194;5.532;2022-09-03T13:55:47;27.40;48.70
51557;DHT22;38766;53.194;5.532;2022-09-03T13:58:33;27.40;47.70
51557;DHT22;38766;53.194;5.532;2022-09-03T14:18:34;27.40;47.70
51557;DHT22;38766;53.194;5.532;2022-09-03T14:21:24;27.40;47.40
51557;DHT22;38766;53.194;5.532;2022-09-03T14:24:19;27.40;48.00
51557;DHT22;38766;53.194;5.532;2022-09-03T14:26:55;27.40;46.90
51557;DHT22;38766;53.194;5.532;2022-09-03T14:29:29;27.30;47.30
51557;DHT22;38766;53.194;5.532;2022-09-03T14:39:53;27.30;48.80
51557;DHT22;38766;53.194;5.532;2022-09-03T14:59:06;27.30;47.80
51557;DHT22;38766;53.194;5.532;2022-09-03T15:01:35;27.30;48.10
51557;DHT22;38766;53.194;5.532;2022-09-03T15:07:23;27.30;47.90
51557;DHT22;38766;53.194;5.532;2022-09-03T15:10:17;27.30;48.50
51557;DHT22;38766;53.194;5.532;2022-09-03T15:12:50;27.20;47.60
51557;DHT22;38766;53.194;5.532;2022-09-03T15:15:20;27.20;48.10
51557;DHT22;38766;53.194;5.532;2022-09-03T15:18:01;27.20;48.10
51557;DHT22;38766;53.194;5.532;2022-09-03T15:23:14;27.10;47.90
51557;DHT22;38766;53.194;5.532;2022-09-03T15:28:48;27.00;47.90
51557;DHT22;38766;53.194;5.532;2022-09-03T15:31:23;27.00;48.30
51557;DHT22;38766;53.194;5.532;2022-09-03T15:34:17;27.00;48.20
51557;DHT22;38766;53.194;5.532;2022-09-03T15:36:50;27.10;48.20
51557;DHT22;38766;53.194;5.532;2022-09-03T15:39:26;27.00;47.90
51557;DHT22;38766;53.194;5.532;2022-09-03T15:41:59;27.00;48.40
51557;DHT22;38766;53.194;5.532;2022-09-03T15:44:33;27.00;48.00
51557;DHT22;38766;53.194;5.532;2022-09-03T15:47:02;26.90;48.10
51557;DHT22;38766;53.194;5.532;2022-09-03T15:52:20;26.90;48.20
51557;DHT22;38766;53.194;5.532;2022-09-03T15:57:57;27.00;48.70
51557;DHT22;38766;53.194;5.532;2022-09-03T16:03:13;26.90;48.40
51557;DHT22;38766;53.194;5.532;2022-09-03T16:05:47;26.90;48.50
51557;DHT22;38766;53.194;5.532;2022-09-03T16:08:37;26.80;48.40
51557;DHT22;38766;53.194;5.532;2022-09-03T16:11:34;26.80;48.50
51557;DHT22;38766;53.194;5.532;2022-09-03T16:14:11;26.90;48.90
51557;DHT22;38766;53.194;5.532;2022-09-03T16:16:58;26.80;48.50
51557;DHT22;38766;53.194;5.532;2022-09-03T16:19:47;26.80;48.40
51557;DHT22;38766;53.194;5.532;2022-09-03T16:22:25;26.80;48.70
51557;DHT22;38766;53.194;5.532;2022-09-03T16:27:35;26.80;48.70
51557;DHT22;38766;53.194;5.532;2022-09-03T16:30:12;26.80;49.00
51557;DHT22;38766;53.194;5.532;2022-09-03T16:44:22;26.50;49.80
51557;DHT22;38766;53.194;5.532;2022-09-03T16:49:52;26.40;50.10
51557;DHT22;38766;53.194;5.532;2022-09-03T16:55:17;26.30;50.40
51557;DHT22;38766;53.194;5.532;2022-09-03T16:58:09;26.20;50.30
51557;DHT22;38766;53.194;5.532;2022-09-03T17:01:03;26.10;50.50
51557;DHT22;38766;53.194;5.532;2022-09-03T17:09:30;26.00;51.20
51557;DHT22;38766;53.194;5.532;2022-09-03T17:12:29;25.90;51.10
51557;DHT22;38766;53.194;5.532;2022-09-03T17:15:09;25.80;51.30
51557;DHT22;38766;53.194;5.532;2022-09-03T17:20:20;25.50;51.60
51557;DHT22;38766;53.194;5.532;2022-09-03T17:25:35;25.40;51.80
51557;DHT22;38766;53.194;5.532;2022-09-03T17:33:43;25.20;52.60
51557;DHT22;38766;53.194;5.532;2022-09-03T17:36:24;25.10;53.10
51557;DHT22;38766;53.194;5.532;2022-09-03T17:41:50;24.90;53.90
51557;DHT22;38766;53.194;5.532;2022-09-03T17:52:49;24.40;55.00
51557;DHT22;38766;53.194;5.532;2022-09-03T17:58:18;24.20;56.30
51557;DHT22;38766;53.194;5.532;2022-09-03T18:01:02;24.10;56.90
51557;DHT22;38766;53.194;5.532;2022-09-03T18:03:44;24.00;57.20
51557;DHT22;38766;53.194;5.532;2022-09-03T18:19:43;23.40;59.60
51557;DHT22;38766;53.194;5.532;2022-09-03T18:22:35;23.30;59.80
51557;DHT22;38766;53.194;5.532;2022-09-03T18:25:23;23.20;60.10
51557;DHT22;38766;53.194;5.532;2022-09-03T18:28:13;23.20;60.50
51557;DHT22;38766;53.194;5.532;2022-09-03T18:30:58;23.00;60.70
51557;DHT22;38766;53.194;5.532;2022-09-03T18:33:42;23.00;61.00
51557;DHT22;38766;53.194;5.532;2022-09-03T18:36:26;22.90;61.20
51557;DHT22;38766;53.194;5.532;2022-09-03T18:39:14;22.80;61.50
51557;DHT22;38766;53.194;5.532;2022-09-03T18:50:52;22.50;63.00
51557;DHT22;38766;53.194;5.532;2022-09-03T18:56:48;22.30;62.90
51557;DHT22;38766;53.194;5.532;2022-09-03T19:00:03;22.20;63.40
51557;DHT22;38766;53.194;5.532;2022-09-03T19:03:07;22.20;64.50
51557;DHT22;38766;53.194;5.532;2022-09-03T19:09:16;22.00;64.40
51557;DHT22;38766;53.194;5.532;2022-09-03T19:12:33;22.00;65.40
51557;DHT22;38766;53.194;5.532;2022-09-03T19:15:36;21.90;65.80
51557;DHT22;38766;53.194;5.532;2022-09-03T19:24:05;21.60;66.50
51557;DHT22;38766;53.194;5.532;2022-09-03T19:27:08;21.60;66.80
51557;DHT22;38766;53.194;5.532;2022-09-03T19:30:07;21.50;68.50
51557;DHT22;38766;53.194;5.532;2022-09-03T19:33:40;21.50;67.60
51557;DHT22;38766;53.194;5.532;2022-09-03T19:36:38;21.40;68.90
51557;DHT22;38766;53.194;5.532;2022-09-03T19:45:49;21.20;69.10
51557;DHT22;38766;53.194;5.532;2022-09-03T19:49:21;21.10;70.30
51557;DHT22;38766;53.194;5.532;2022-09-03T19:55:09;20.90;70.70
51557;DHT22;38766;53.194;5.532;2022-09-03T19:57:58;20.90;70.60
51557;DHT22;38766;53.194;5.532;2022-09-03T20:00:44;20.90;70.90
51557;DHT22;38766;53.194;5.532;2022-09-03T20:03:28;20.80;70.90
51557;DHT22;38766;53.194;5.532;2022-09-03T20:06:13;20.90;71.00
51557;DHT22;38766;53.194;5.532;2022-09-03T20:09:08;20.70;71.00
51557;DHT22;38766;53.194;5.532;2022-09-03T20:11:57;20.80;71.20
51557;DHT22;38766;53.194;5.532;2022-09-03T20:14:24;20.70;71.10
51557;DHT22;38766;53.194;5.532;2022-09-03T20:30:31;20.50;70.90
51557;DHT22;38766;53.194;5.532;2022-09-03T20:44:27;20.40;71.30
51557;DHT22;38766;53.194;5.532;2022-09-03T20:55:41;20.20;71.30
51557;DHT22;38766;53.194;5.532;2022-09-03T21:00:57;20.20;70.90
51557;DHT22;38766;53.194;5.532;2022-09-03T21:06:30;20.20;70.80
51557;DHT22;38766;53.194;5.532;2022-09-03T21:11:51;20.10;70.70
51557;DHT22;38766;53.194;5.532;2022-09-03T21:14:23;20.10;70.60
51557;DHT22;38766;53.194;5.532;2022-09-03T21:25:22;20.00;70.40
51557;DHT22;38766;53.194;5.532;2022-09-03T21:27:55;20.00;70.50
51557;DHT22;38766;53.194;5.532;2022-09-03T21:30:23;19.90;70.50
51557;DHT22;38766;53.194;5.532;2022-09-03T21:33:01;19.90;70.40
51557;DHT22;38766;53.194;5.532;2022-09-03T21:35:31;19.90;70.50
51557;DHT22;38766;53.194;5.532;2022-09-03T21:38:19;19.90;70.50
51557;DHT22;38766;53.194;5.532;2022-09-03T21:43:34;19.80;70.60
51557;DHT22;38766;53.194;5.532;2022-09-03T21:46:06;19.80;70.60
51557;DHT22;38766;53.194;5.532;2022-09-03T21:48:42;19.70;70.60
51557;DHT22;38766;53.194;5.532;2022-09-03T21:51:20;19.70;70.70
51557;DHT22;38766;53.194;5.532;2022-09-03T21:53:56;19.70;70.70
51557;DHT22;38766;53.194;5.532;2022-09-03T22:04:41;19.60;70.50
51557;DHT22;38766;53.194;5.532;2022-09-03T22:10:24;19.60;70.30
51557;DHT22;38766;53.194;5.532;2022-09-03T22:15:27;19.60;70.60
51557;DHT22;38766;53.194;5.532;2022-09-03T22:18:12;19.60;70.00
51557;DHT22;38766;53.194;5.532;2022-09-03T22:20:42;19.60;70.00
51557;DHT22;38766;53.194;5.532;2022-09-03T22:23:29;19.60;69.90